sensor_id;sensor_type;location;lat;lon;timestamp;temperature;humidity
19232;DHT22;9750;48.730;10.294;2022-10-31T00:00:54;12.70;99.90
19232;DHT22;9750;48.730;10.294;2022-10-31T00:03:22;12.70;99.90
19232;DHT22;9750;48.730;10.294;2022-10-31T00:05:49;12.70;99.90
19232;DHT22;9750;48.730;10.294;2022-10-31T00:08:17;12.80;99.90
19232;DHT22;9750;48.730;10.294;2022-10-31T00:10:46;12.80;99.90
19232;DHT22;9750;48.730;10.294;2022-10-31T00:13:14;12.70;99.90
19232;DHT22;9750;48.730;10.294;2022-10-31T00:15:42;12.80;99.90
19232;DHT22;9750;48.730;10.294;2022-10-31T00:18:10;12.70;99.90
19232;DHT22;9750;48.730;10.294;2022-10-31T00:21:08;12.70;99.90
19232;DHT22;9750;48.730;10.294;2022-10-31T00:23:35;12.70;99.90
19232;DHT22;9750;48.730;10.294;2022-10-31T00:26:04;12.70;99.90
19232;DHT22;9750;48.730;10.294;2022-10-31T00:28:34;12.70;99.90
19232;DHT22;9750;48.730;10.294;2022-10-31T00:31:02;12.60;99.90
19232;DHT22;9750;48.730;10.294;2022-10-31T00:33:30;12.60;99.90
19232;DHT22;9750;48.730;10.294;2022-10-31T00:35:57;12.60;99.90
19232;DHT22;9750;48.730;10.294;2022-10-31T00:38:24;12.60;99.90
19232;DHT22;9750;48.730;10.294;2022-10-31T00:40:52;12.60;99.90
19232;DHT22;9750;48.730;10.294;2022-10-31T00:43:19;12.70;99.90
19232;DHT22;9750;48.730;10.294;2022-10-31T00:45:48;12.70;99.90
19232;DHT22;9750;48.730;10.294;2022-10-31T00:48:15;12.70;99.90
19232;DHT22;9750;48.730;10.294;2022-10-31T00:50:43;12.70;99.90
19232;DHT22;9750;48.730;10.294;2022-10-31T00:53:10;12.70;99.90
19232;DHT22;9750;48.730;10.294;2022-10-31T00:55:37;12.80;99.90
19232;DHT22;9750;48.730;10.294;2022-10-31T00:58:05;12.70;99.90
19232;DHT22;9750;48.730;10.294;2022-10-31T01:00:32;12.80;99.90
19232;DHT22;9750;48.730;10.294;2022-10-31T01:03:01;12.70;99.90
19232;DHT22;9750;48.730;10.294;2022-10-31T01:05:28;12.70;99.90
19232;DHT22;9750;48.730;10.294;2022-10-31T01:07:55;12.70;99.90
19232;DHT22;9750;48.730;10.294;2022-10-31T01:10:23;12.70;99.90
19232;DHT22;9750;48.730;10.294;2022-10-31T01:12:50;12.80;99.90
19232;DHT22;9750;48.730;10.294;2022-10-31T01:15:19;12.80;99.90
19232;DHT22;9750;48.730;10.294;2022-10-31T01:17:46;12.70;99.90
19232;DHT22;9750;48.730;10.294;2022-10-31T01:20:16;12.70;99.90
19232;DHT22;9750;48.730;10.294;2022-10-31T01:22:43;12.70;99.90
19232;DHT22;9750;48.730;10.294;2022-10-31T01:25:11;12.70;99.90
19232;DHT22;9750;48.730;10.294;2022-10-31T01:27:38;12.80;99.90
19232;DHT22;9750;48.730;10.294;2022-10-31T01:30:06;12.80;99.90
19232;DHT22;9750;48.730;10.294;2022-10-31T01:32:34;12.80;99.90
19232;DHT22;9750;48.730;10.294;2022-10-31T01:35:01;12.80;99.90
19232;DHT22;9750;48.730;10.294;2022-10-31T01:37:30;12.80;99.90
19232;DHT22;9750;48.730;10.294;2022-10-31T01:39:57;12.80;99.90
19232;DHT22;9750;48.730;10.294;2022-10-31T01:42:25;12.80;99.90
19232;DHT22;9750;48.730;10.294;2022-10-31T01:44:58;12.80;99.90
19232;DHT22;9750;48.730;10.294;2022-10-31T01:47:34;12.80;99.90
19232;DHT22;9750;48.730;10.294;2022-10-31T01:50:08;12.90;99.90
19232;DHT22;9750;48.730;10.294;2022-10-31T01:52:40;12.80;99.90
19232;DHT22;9750;48.730;10.294;2022-10-31T01:55:11;12.90;99.90
19232;DHT22;9750;48.730;10.294;2022-10-31T01:57:42;12.90;99.90
19232;DHT22;9750;48.730;10.294;2022-10-31T02:00:12;12.90;99.90
19232;DHT22;9750;48.730;10.294;2022-10-31T02:02:40;12.90;99.90
19232;DHT22;9750;48.730;10.294;2022-10-31T02:05:12;12.90;99.90
19232;DHT22;9750;48.730;10.294;2022-10-31T02:07:45;12.90;99.90
19232;DHT22;9750;48.730;10.294;2022-10-31T02:13:37;12.90;99.90
19232;DHT22;9750;48.730;10.294;2022-10-31T02:16:05;12.90;99.90
19232;DHT22;9750;48.730;10.294;2022-10-31T02:18:33;12.90;99.90
19232;DHT22;9750;48.730;10.294;2022-10-31T02:21:07;12.90;99.90
19232;DHT22;9750;48.730;10.294;2022-10-31T02:24:11;13.00;99.90
19232;DHT22;9750;48.730;10.294;2022-10-31T02:27:08;12.90;99.90
19232;DHT22;9750;48.730;10.294;2022-10-31T02:30:09;12.90;99.90
19232;DHT22;9750;48.730;10.294;2022-10-31T02:33:00;12.90;99.90
19232;DHT22;9750;48.730;10.294;2022-10-31T02:35:43;12.90;99.90
19232;DHT22;9750;48.730;10.294;2022-10-31T02:38:30;12.90;99.90
19232;DHT22;9750;48.730;10.294;2022-10-31T02:41:06;12.90;99.90
19232;DHT22;9750;48.730;10.294;2022-10-31T02:43:42;12.90;99.90
19232;DHT22;9750;48.730;10.294;2022-10-31T02:46:14;12.90;99.90
19232;DHT22;9750;48.730;10.294;2022-10-31T02:48:46;12.90;99.90
19232;DHT22;9750;48.730;10.294;2022-10-31T02:51:15;12.80;99.90
19232;DHT22;9750;48.730;10.294;2022-10-31T02:53:43;12.80;99.90
19232;DHT22;9750;48.730;10.294;2022-10-31T02:56:13;12.90;99.90
19232;DHT22;9750;48.730;10.294;2022-10-31T02:58:44;12.90;99.90
19232;DHT22;9750;48.730;10.294;2022-10-31T03:01:37;12.90;99.90
19232;DHT22;9750;48.730;10.294;2022-10-31T03:04:19;12.90;99.90
19232;DHT22;9750;48.730;10.294;2022-10-31T03:06:52;12.90;99.90
19232;DHT22;9750;48.730;10.294;2022-10-31T03:09:23;12.90;99.90
19232;DHT22;9750;48.730;10.294;2022-10-31T03:11:58;12.90;99.90
19232;DHT22;9750;48.730;10.294;2022-10-31T03:14:35;12.90;99.90
19232;DHT22;9750;48.730;10.294;2022-10-31T03:17:07;12.80;99.90
19232;DHT22;9750;48.730;10.294;2022-10-31T03:19:40;12.80;99.90
19232;DHT22;9750;48.730;10.294;2022-10-31T03:22:15;12.80;99.90
19232;DHT22;9750;48.730;10.294;2022-10-31T03:24:43;12.80;99.90
19232;DHT22;9750;48.730;10.294;2022-10-31T03:27:14;12.70;99.90
19232;DHT22;9750;48.730;10.294;2022-10-31T03:29:44;12.70;99.90
19232;DHT22;9750;48.730;10.294;2022-10-31T03:32:15;12.70;99.90
19232;DHT22;9750;48.730;10.294;2022-10-31T03:34:46;12.60;99.90
19232;DHT22;9750;48.730;10.294;2022-10-31T03:37:16;12.60;99.90
19232;DHT22;9750;48.730;10.294;2022-10-31T03:39:46;12.60;99.90
19232;DHT22;9750;48.730;10.294;2022-10-31T03:42:16;12.60;99.90
19232;DHT22;9750;48.730;10.294;2022-10-31T03:44:48;12.60;99.90
19232;DHT22;9750;48.730;10.294;2022-10-31T03:47:18;12.60;99.90
19232;DHT22;9750;48.730;10.294;2022-10-31T03:49:46;12.60;99.90
19232;DHT22;9750;48.730;10.294;2022-10-31T03:52:19;12.50;99.90
19232;DHT22;9750;48.730;10.294;2022-10-31T03:54:54;12.50;99.90
19232;DHT22;9750;48.730;10.294;2022-10-31T03:57:25;12.50;99.90
19232;DHT22;9750;48.730;10.294;2022-10-31T04:03:20;12.50;99.90
19232;DHT22;9750;48.730;10.294;2022-10-31T04:05:53;12.40;99.90
19232;DHT22;9750;48.730;10.294;2022-10-31T04:08:26;12.40;99.90
19232;DHT22;9750;48.730;10.294;2022-10-31T04:10:56;12.40;99.90
19232;DHT22;9750;48.730;10.294;2022-10-31T04:13:26;12.30;99.90
19232;DHT22;9750;48.730;10.294;2022-10-31T04:15:55;12.30;99.90
19232;DHT22;9750;48.730;10.294;2022-10-31T04:18:23;12.30;99.90
19232;DHT22;9750;48.730;10.294;2022-10-31T04:20:59;12.30;99.90
19232;DHT22;9750;48.730;10.294;2022-10-31T04:23:29;12.30;99.90
19232;DHT22;9750;48.730;10.294;2022-10-31T04:25:56;12.30;99.90
19232;DHT22;9750;48.730;10.294;2022-10-31T04:28:24;12.30;99.90
19232;DHT22;9750;48.730;10.294;2022-10-31T04:30:51;12.30;99.90
19232;DHT22;9750;48.730;10.294;2022-10-31T04:33:19;12.30;99.90
19232;DHT22;9750;48.730;10.294;2022-10-31T04:35:46;12.30;99.90
19232;DHT22;9750;48.730;10.294;2022-10-31T04:38:15;12.30;99.90
19232;DHT22;9750;48.730;10.294;2022-10-31T04:40:44;12.20;99.90
19232;DHT22;9750;48.730;10.294;2022-10-31T04:43:11;12.10;99.90
19232;DHT22;9750;48.730;10.294;2022-10-31T04:45:38;12.10;99.90
19232;DHT22;9750;48.730;10.294;2022-10-31T04:48:06;12.00;99.90
19232;DHT22;9750;48.730;10.294;2022-10-31T04:50:33;12.00;99.90
19232;DHT22;9750;48.730;10.294;2022-10-31T04:53:00;12.00;99.90
19232;DHT22;9750;48.730;10.294;2022-10-31T04:55:29;11.90;99.90
19232;DHT22;9750;48.730;10.294;2022-10-31T04:57:56;11.90;99.90
19232;DHT22;9750;48.730;10.294;2022-10-31T05:00:24;11.90;99.90
19232;DHT22;9750;48.730;10.294;2022-10-31T05:02:53;11.90;99.90
19232;DHT22;9750;48.730;10.294;2022-10-31T05:05:21;11.90;99.90
19232;DHT22;9750;48.730;10.294;2022-10-31T05:07:50;11.90;99.90
19232;DHT22;9750;48.730;10.294;2022-10-31T05:10:19;11.90;99.90
19232;DHT22;9750;48.730;10.294;2022-10-31T05:12:49;11.90;99.90
19232;DHT22;9750;48.730;10.294;2022-10-31T05:15:18;11.90;99.90
19232;DHT22;9750;48.730;10.294;2022-10-31T05:17:45;11.90;99.90
19232;DHT22;9750;48.730;10.294;2022-10-31T05:20:14;11.90;99.90
19232;DHT22;9750;48.730;10.294;2022-10-31T05:22:44;11.90;99.90
19232;DHT22;9750;48.730;10.294;2022-10-31T05:25:12;11.90;99.90
19232;DHT22;9750;48.730;10.294;2022-10-31T05:27:40;11.90;99.90
19232;DHT22;9750;48.730;10.294;2022-10-31T05:30:11;11.90;99.90
19232;DHT22;9750;48.730;10.294;2022-10-31T05:32:39;11.90;99.90
19232;DHT22;9750;48.730;10.294;2022-10-31T05:35:07;11.90;99.90
19232;DHT22;9750;48.730;10.294;2022-10-31T05:37:35;11.80;99.90
19232;DHT22;9750;48.730;10.294;2022-10-31T05:40:02;11.80;99.90
19232;DHT22;9750;48.730;10.294;2022-10-31T05:42:30;11.80;99.90
19232;DHT22;9750;48.730;10.294;2022-10-31T05:44:57;11.80;99.90
19232;DHT22;9750;48.730;10.294;2022-10-31T05:47:26;11.80;99.90
19232;DHT22;9750;48.730;10.294;2022-10-31T05:49:53;11.70;99.90
19232;DHT22;9750;48.730;10.294;2022-10-31T05:52:20;11.70;99.90
19232;DHT22;9750;48.730;10.294;2022-10-31T05:54:48;11.70;99.90
19232;DHT22;9750;48.730;10.294;2022-10-31T05:57:15;11.70;99.90
19232;DHT22;9750;48.730;10.294;2022-10-31T05:59:42;11.60;99.90
19232;DHT22;9750;48.730;10.294;2022-10-31T06:02:10;11.60;99.90
19232;DHT22;9750;48.730;10.294;2022-10-31T06:04:38;11.60;99.90
19232;DHT22;9750;48.730;10.294;2022-10-31T06:07:06;11.60;99.90
19232;DHT22;9750;48.730;10.294;2022-10-31T06:09:44;11.60;99.90
19232;DHT22;9750;48.730;10.294;2022-10-31T06:12:12;11.50;99.90
19232;DHT22;9750;48.730;10.294;2022-10-31T06:14:39;11.50;99.90
19232;DHT22;9750;48.730;10.294;2022-10-31T06:17:06;11.50;99.90
19232;DHT22;9750;48.730;10.294;2022-10-31T06:19:34;11.50;99.90
19232;DHT22;9750;48.730;10.294;2022-10-31T06:22:03;11.50;99.90
19232;DHT22;9750;48.730;10.294;2022-10-31T06:24:30;11.50;99.90
19232;DHT22;9750;48.730;10.294;2022-10-31T06:26:57;11.40;99.90
19232;DHT22;9750;48.730;10.294;2022-10-31T06:29:24;11.40;99.90
19232;DHT22;9750;48.730;10.294;2022-10-31T06:31:52;11.40;99.90
19232;DHT22;9750;48.730;10.294;2022-10-31T06:34:19;11.40;99.90
19232;DHT22;9750;48.730;10.294;2022-10-31T06:36:47;11.40;99.90
19232;DHT22;9750;48.730;10.294;2022-10-31T06:39:15;11.40;99.90
19232;DHT22;9750;48.730;10.294;2022-10-31T06:41:43;11.40;99.90
19232;DHT22;9750;48.730;10.294;2022-10-31T06:44:10;11.40;99.90
19232;DHT22;9750;48.730;10.294;2022-10-31T06:46:37;11.40;99.90
19232;DHT22;9750;48.730;10.294;2022-10-31T06:49:05;11.40;99.90
19232;DHT22;9750;48.730;10.294;2022-10-31T06:51:32;11.40;99.90
19232;DHT22;9750;48.730;10.294;2022-10-31T06:53:59;11.40;99.90
19232;DHT22;9750;48.730;10.294;2022-10-31T06:56:28;11.50;99.90
19232;DHT22;9750;48.730;10.294;2022-10-31T06:58:55;11.40;99.90
19232;DHT22;9750;48.730;10.294;2022-10-31T07:01:23;11.40;99.90
19232;DHT22;9750;48.730;10.294;2022-10-31T07:03:50;11.50;99.90
19232;DHT22;9750;48.730;10.294;2022-10-31T07:06:17;11.50;99.90
19232;DHT22;9750;48.730;10.294;2022-10-31T07:08:45;11.50;99.90
19232;DHT22;9750;48.730;10.294;2022-10-31T07:11:12;11.40;99.90
19232;DHT22;9750;48.730;10.294;2022-10-31T07:13:41;11.40;99.90
19232;DHT22;9750;48.730;10.294;2022-10-31T07:16:08;11.50;99.90
19232;DHT22;9750;48.730;10.294;2022-10-31T07:18:37;11.50;99.90
19232;DHT22;9750;48.730;10.294;2022-10-31T07:21:05;11.50;99.90
19232;DHT22;9750;48.730;10.294;2022-10-31T07:23:32;11.60;99.90
19232;DHT22;9750;48.730;10.294;2022-10-31T07:26:00;11.60;99.90
19232;DHT22;9750;48.730;10.294;2022-10-31T07:28:27;11.70;99.90
19232;DHT22;9750;48.730;10.294;2022-10-31T07:30:57;11.60;99.90
19232;DHT22;9750;48.730;10.294;2022-10-31T07:33:25;11.70;99.90
19232;DHT22;9750;48.730;10.294;2022-10-31T07:35:53;11.70;99.90
19232;DHT22;9750;48.730;10.294;2022-10-31T07:38:20;11.80;99.90
19232;DHT22;9750;48.730;10.294;2022-10-31T07:40:50;11.80;99.90
19232;DHT22;9750;48.730;10.294;2022-10-31T07:43:19;11.80;99.90
19232;DHT22;9750;48.730;10.294;2022-10-31T07:45:49;11.90;99.90
19232;DHT22;9750;48.730;10.294;2022-10-31T07:48:19;11.90;99.90
19232;DHT22;9750;48.730;10.294;2022-10-31T07:50:47;12.00;99.90
19232;DHT22;9750;48.730;10.294;2022-10-31T07:53:15;12.10;99.90
19232;DHT22;9750;48.730;10.294;2022-10-31T07:55:43;12.10;99.90
19232;DHT22;9750;48.730;10.294;2022-10-31T07:58:13;12.20;99.90
19232;DHT22;9750;48.730;10.294;2022-10-31T08:00:41;12.30;99.90
19232;DHT22;9750;48.730;10.294;2022-10-31T08:03:10;12.30;99.90
19232;DHT22;9750;48.730;10.294;2022-10-31T08:05:40;12.40;99.90
19232;DHT22;9750;48.730;10.294;2022-10-31T08:08:08;12.50;99.90
19232;DHT22;9750;48.730;10.294;2022-10-31T08:10:36;12.60;99.90
19232;DHT22;9750;48.730;10.294;2022-10-31T08:13:05;12.60;99.90
19232;DHT22;9750;48.730;10.294;2022-10-31T08:15:32;12.70;99.90
19232;DHT22;9750;48.730;10.294;2022-10-31T08:18:04;12.70;99.90
19232;DHT22;9750;48.730;10.294;2022-10-31T08:20:31;12.80;99.90
19232;DHT22;9750;48.730;10.294;2022-10-31T08:23:02;12.80;99.90
19232;DHT22;9750;48.730;10.294;2022-10-31T08:25:31;12.90;99.90
19232;DHT22;9750;48.730;10.294;2022-10-31T08:27:58;13.00;99.90
19232;DHT22;9750;48.730;10.294;2022-10-31T08:30:27;13.00;99.90
19232;DHT22;9750;48.730;10.294;2022-10-31T08:33:00;13.10;99.90
19232;DHT22;9750;48.730;10.294;2022-10-31T08:35:27;13.10;99.90
19232;DHT22;9750;48.730;10.294;2022-10-31T08:37:55;13.20;99.90
19232;DHT22;9750;48.730;10.294;2022-10-31T08:40:25;13.30;99.90
19232;DHT22;9750;48.730;10.294;2022-10-31T08:42:57;13.30;99.90
19232;DHT22;9750;48.730;10.294;2022-10-31T08:45:24;13.40;99.90
19232;DHT22;9750;48.730;10.294;2022-10-31T08:47:52;13.40;99.90
19232;DHT22;9750;48.730;10.294;2022-10-31T08:50:19;13.50;99.90
19232;DHT22;9750;48.730;10.294;2022-10-31T08:52:46;13.50;99.90
19232;DHT22;9750;48.730;10.294;2022-10-31T08:55:14;13.60;99.90
19232;DHT22;9750;48.730;10.294;2022-10-31T08:57:43;13.60;99.90
19232;DHT22;9750;48.730;10.294;2022-10-31T09:00:11;13.60;99.90
19232;DHT22;9750;48.730;10.294;2022-10-31T09:02:38;13.70;99.90
19232;DHT22;9750;48.730;10.294;2022-10-31T09:05:06;13.70;99.90
19232;DHT22;9750;48.730;10.294;2022-10-31T09:07:33;13.80;99.90
19232;DHT22;9750;48.730;10.294;2022-10-31T09:12:59;13.90;99.90
19232;DHT22;9750;48.730;10.294;2022-10-31T09:15:27;14.00;99.90
19232;DHT22;9750;48.730;10.294;2022-10-31T09:17:55;14.00;99.90
19232;DHT22;9750;48.730;10.294;2022-10-31T09:20:22;14.10;99.90
19232;DHT22;9750;48.730;10.294;2022-10-31T09:22:55;14.10;99.90
19232;DHT22;9750;48.730;10.294;2022-10-31T09:25:24;14.20;99.90
19232;DHT22;9750;48.730;10.294;2022-10-31T09:27:54;14.30;99.90
19232;DHT22;9750;48.730;10.294;2022-10-31T09:30:23;14.30;99.90
19232;DHT22;9750;48.730;10.294;2022-10-31T09:32:55;14.40;99.90
19232;DHT22;9750;48.730;10.294;2022-10-31T09:35:23;14.50;99.90
19232;DHT22;9750;48.730;10.294;2022-10-31T09:37:54;14.50;99.90
19232;DHT22;9750;48.730;10.294;2022-10-31T09:40:22;14.60;99.90
19232;DHT22;9750;48.730;10.294;2022-10-31T09:42:58;14.60;99.90
19232;DHT22;9750;48.730;10.294;2022-10-31T09:45:33;14.70;99.90
19232;DHT22;9750;48.730;10.294;2022-10-31T09:48:23;14.70;99.90
19232;DHT22;9750;48.730;10.294;2022-10-31T09:50:53;14.80;99.90
19232;DHT22;9750;48.730;10.294;2022-10-31T09:53:25;14.80;99.90
19232;DHT22;9750;48.730;10.294;2022-10-31T09:55:55;14.90;99.90
19232;DHT22;9750;48.730;10.294;2022-10-31T09:58:25;14.90;99.90
19232;DHT22;9750;48.730;10.294;2022-10-31T10:00:57;15.00;99.90
19232;DHT22;9750;48.730;10.294;2022-10-31T10:03:31;15.00;99.90
19232;DHT22;9750;48.730;10.294;2022-10-31T10:06:06;15.10;99.90
19232;DHT22;9750;48.730;10.294;2022-10-31T10:08:36;15.10;99.90
19232;DHT22;9750;48.730;10.294;2022-10-31T10:11:19;15.20;99.90
19232;DHT22;9750;48.730;10.294;2022-10-31T10:14:09;15.20;99.90
19232;DHT22;9750;48.730;10.294;2022-10-31T10:16:51;15.30;99.90
19232;DHT22;9750;48.730;10.294;2022-10-31T10:19:34;15.30;99.90
19232;DHT22;9750;48.730;10.294;2022-10-31T10:22:12;15.40;99.90
19232;DHT22;9750;48.730;10.294;2022-10-31T10:25:00;15.40;99.90
19232;DHT22;9750;48.730;10.294;2022-10-31T10:27:41;15.50;99.90
19232;DHT22;9750;48.730;10.294;2022-10-31T10:30:15;15.50;99.90
19232;DHT22;9750;48.730;10.294;2022-10-31T10:32:46;15.50;99.90
19232;DHT22;9750;48.730;10.294;2022-10-31T10:35:22;15.60;99.90
19232;DHT22;9750;48.730;10.294;2022-10-31T10:37:55;15.70;99.90
19232;DHT22;9750;48.730;10.294;2022-10-31T10:40:27;15.70;99.90
19232;DHT22;9750;48.730;10.294;2022-10-31T10:43:01;15.80;99.90
19232;DHT22;9750;48.730;10.294;2022-10-31T10:45:52;15.90;99.90
19232;DHT22;9750;48.730;10.294;2022-10-31T10:48:43;15.90;99.90
19232;DHT22;9750;48.730;10.294;2022-10-31T10:51:19;16.00;99.90
19232;DHT22;9750;48.730;10.294;2022-10-31T10:54:03;16.10;99.90
19232;DHT22;9750;48.730;10.294;2022-10-31T10:56:51;16.10;99.90
19232;DHT22;9750;48.730;10.294;2022-10-31T10:59:21;16.20;99.90
19232;DHT22;9750;48.730;10.294;2022-10-31T11:01:50;16.20;99.90
19232;DHT22;9750;48.730;10.294;2022-10-31T11:04:32;16.20;99.90
19232;DHT22;9750;48.730;10.294;2022-10-31T11:07:02;16.30;99.90
19232;DHT22;9750;48.730;10.294;2022-10-31T11:09:30;16.30;99.90
19232;DHT22;9750;48.730;10.294;2022-10-31T11:11:58;16.30;99.90
19232;DHT22;9750;48.730;10.294;2022-10-31T11:14:26;16.30;99.90
19232;DHT22;9750;48.730;10.294;2022-10-31T11:17:09;16.30;99.90
19232;DHT22;9750;48.730;10.294;2022-10-31T11:19:38;16.30;99.90
19232;DHT22;9750;48.730;10.294;2022-10-31T11:22:07;16.40;99.90
19232;DHT22;9750;48.730;10.294;2022-10-31T11:24:39;16.40;99.90
19232;DHT22;9750;48.730;10.294;2022-10-31T11:27:14;16.50;99.90
19232;DHT22;9750;48.730;10.294;2022-10-31T11:29:42;16.60;99.90
19232;DHT22;9750;48.730;10.294;2022-10-31T11:32:18;16.60;99.90
19232;DHT22;9750;48.730;10.294;2022-10-31T11:34:49;16.70;99.90
19232;DHT22;9750;48.730;10.294;2022-10-31T11:37:21;16.70;99.90
19232;DHT22;9750;48.730;10.294;2022-10-31T11:39:51;16.80;99.90
19232;DHT22;9750;48.730;10.294;2022-10-31T11:42:22;16.80;99.90
19232;DHT22;9750;48.730;10.294;2022-10-31T11:44:51;16.90;99.90
19232;DHT22;9750;48.730;10.294;2022-10-31T11:47:25;16.90;99.90
19232;DHT22;9750;48.730;10.294;2022-10-31T11:49:55;17.00;99.90
19232;DHT22;9750;48.730;10.294;2022-10-31T11:52:25;17.10;99.90
19232;DHT22;9750;48.730;10.294;2022-10-31T11:54:55;17.10;99.90
19232;DHT22;9750;48.730;10.294;2022-10-31T11:57:24;17.20;99.90
19232;DHT22;9750;48.730;10.294;2022-10-31T11:59:53;17.30;99.90
19232;DHT22;9750;48.730;10.294;2022-10-31T12:02:22;17.30;99.90
19232;DHT22;9750;48.730;10.294;2022-10-31T12:04:56;17.30;99.90
19232;DHT22;9750;48.730;10.294;2022-10-31T12:07:25;17.40;99.90
19232;DHT22;9750;48.730;10.294;2022-10-31T12:09:53;17.40;99.90
19232;DHT22;9750;48.730;10.294;2022-10-31T12:12:36;17.40;99.90
19232;DHT22;9750;48.730;10.294;2022-10-31T12:15:27;17.40;99.90
19232;DHT22;9750;48.730;10.294;2022-10-31T12:18:16;17.40;99.90
19232;DHT22;9750;48.730;10.294;2022-10-31T12:20:54;17.40;99.90
19232;DHT22;9750;48.730;10.294;2022-10-31T12:23:30;17.50;99.90
19232;DHT22;9750;48.730;10.294;2022-10-31T12:26:09;17.50;99.90
19232;DHT22;9750;48.730;10.294;2022-10-31T12:28:57;17.50;99.90
19232;DHT22;9750;48.730;10.294;2022-10-31T12:31:43;17.50;99.90
19232;DHT22;9750;48.730;10.294;2022-10-31T12:34:46;17.50;99.90
19232;DHT22;9750;48.730;10.294;2022-10-31T12:37:29;17.50;99.90
19232;DHT22;9750;48.730;10.294;2022-10-31T12:40:29;17.50;99.90
19232;DHT22;9750;48.730;10.294;2022-10-31T12:43:09;17.50;99.90
19232;DHT22;9750;48.730;10.294;2022-10-31T12:45:52;17.50;99.90
19232;DHT22;9750;48.730;10.294;2022-10-31T12:48:52;17.50;99.90
19232;DHT22;9750;48.730;10.294;2022-10-31T12:51:30;17.50;99.90
19232;DHT22;9750;48.730;10.294;2022-10-31T12:54:18;17.50;99.90
19232;DHT22;9750;48.730;10.294;2022-10-31T12:56:56;17.60;99.90
19232;DHT22;9750;48.730;10.294;2022-10-31T12:59:30;17.50;99.90
19232;DHT22;9750;48.730;10.294;2022-10-31T13:02:04;17.60;99.90
19232;DHT22;9750;48.730;10.294;2022-10-31T13:04:42;17.50;99.90
19232;DHT22;9750;48.730;10.294;2022-10-31T13:07:13;17.60;99.90
19232;DHT22;9750;48.730;10.294;2022-10-31T13:09:48;17.50;99.90
19232;DHT22;9750;48.730;10.294;2022-10-31T13:12:20;17.60;99.90
19232;DHT22;9750;48.730;10.294;2022-10-31T13:14:51;17.60;99.90
19232;DHT22;9750;48.730;10.294;2022-10-31T13:17:25;17.60;99.90
19232;DHT22;9750;48.730;10.294;2022-10-31T13:20:03;17.60;99.90
19232;DHT22;9750;48.730;10.294;2022-10-31T13:22:33;17.60;99.90
19232;DHT22;9750;48.730;10.294;2022-10-31T13:25:10;17.70;99.90
19232;DHT22;9750;48.730;10.294;2022-10-31T13:27:45;17.70;99.90
19232;DHT22;9750;48.730;10.294;2022-10-31T13:30:16;17.70;99.90
19232;DHT22;9750;48.730;10.294;2022-10-31T13:32:48;17.70;99.90
19232;DHT22;9750;48.730;10.294;2022-10-31T13:35:23;17.80;99.90
19232;DHT22;9750;48.730;10.294;2022-10-31T13:38:03;17.80;99.90
19232;DHT22;9750;48.730;10.294;2022-10-31T13:40:40;17.80;99.90
19232;DHT22;9750;48.730;10.294;2022-10-31T13:43:17;17.90;99.90
19232;DHT22;9750;48.730;10.294;2022-10-31T13:45:49;17.90;99.90
19232;DHT22;9750;48.730;10.294;2022-10-31T13:48:34;17.90;99.90
19232;DHT22;9750;48.730;10.294;2022-10-31T13:51:04;17.80;99.90
19232;DHT22;9750;48.730;10.294;2022-10-31T13:53:38;17.90;99.90
19232;DHT22;9750;48.730;10.294;2022-10-31T13:56:18;17.90;99.90
19232;DHT22;9750;48.730;10.294;2022-10-31T13:59:16;17.80;99.90
19232;DHT22;9750;48.730;10.294;2022-10-31T14:01:51;17.80;99.90
19232;DHT22;9750;48.730;10.294;2022-10-31T14:04:20;17.80;99.90
19232;DHT22;9750;48.730;10.294;2022-10-31T14:06:54;17.80;99.90
19232;DHT22;9750;48.730;10.294;2022-10-31T14:09:26;17.80;99.90
19232;DHT22;9750;48.730;10.294;2022-10-31T14:11:56;17.70;99.90
19232;DHT22;9750;48.730;10.294;2022-10-31T14:14:30;17.70;99.90
19232;DHT22;9750;48.730;10.294;2022-10-31T14:16:59;17.60;99.90
19232;DHT22;9750;48.730;10.294;2022-10-31T14:19:56;17.60;99.90
19232;DHT22;9750;48.730;10.294;2022-10-31T14:22:23;17.50;99.90
19232;DHT22;9750;48.730;10.294;2022-10-31T14:24:55;17.50;99.90
19232;DHT22;9750;48.730;10.294;2022-10-31T14:27:51;17.50;99.90
19232;DHT22;9750;48.730;10.294;2022-10-31T14:30:21;17.50;99.90
19232;DHT22;9750;48.730;10.294;2022-10-31T14:32:52;17.50;99.90
19232;DHT22;9750;48.730;10.294;2022-10-31T14:35:21;17.50;99.90
19232;DHT22;9750;48.730;10.294;2022-10-31T14:41:22;17.50;99.90
19232;DHT22;9750;48.730;10.294;2022-10-31T14:44:16;17.50;99.90
19232;DHT22;9750;48.730;10.294;2022-10-31T14:46:54;17.50;99.90
19232;DHT22;9750;48.730;10.294;2022-10-31T14:49:47;17.50;99.90
19232;DHT22;9750;48.730;10.294;2022-10-31T14:52:18;17.50;99.90
19232;DHT22;9750;48.730;10.294;2022-10-31T14:54:51;17.50;99.90
19232;DHT22;9750;48.730;10.294;2022-10-31T14:57:22;17.50;99.90
19232;DHT22;9750;48.730;10.294;2022-10-31T15:00:12;17.50;99.90
19232;DHT22;9750;48.730;10.294;2022-10-31T15:02:49;17.60;99.90
19232;DHT22;9750;48.730;10.294;2022-10-31T15:05:18;17.60;99.90
19232;DHT22;9750;48.730;10.294;2022-10-31T15:07:52;17.60;99.90
19232;DHT22;9750;48.730;10.294;2022-10-31T15:10:22;17.60;99.90
19232;DHT22;9750;48.730;10.294;2022-10-31T15:12:49;17.60;99.90
19232;DHT22;9750;48.730;10.294;2022-10-31T15:15:21;17.50;99.90
19232;DHT22;9750;48.730;10.294;2022-10-31T15:17:52;17.50;99.90
19232;DHT22;9750;48.730;10.294;2022-10-31T15:20:21;17.40;99.90
19232;DHT22;9750;48.730;10.294;2022-10-31T15:22:50;17.40;99.90
19232;DHT22;9750;48.730;10.294;2022-10-31T15:25:19;17.30;99.90
19232;DHT22;9750;48.730;10.294;2022-10-31T15:27:47;17.20;99.90
19232;DHT22;9750;48.730;10.294;2022-10-31T15:30:22;17.10;99.90
19232;DHT22;9750;48.730;10.294;2022-10-31T15:32:50;17.10;99.90
19232;DHT22;9750;48.730;10.294;2022-10-31T15:35:21;17.00;99.90
19232;DHT22;9750;48.730;10.294;2022-10-31T15:37:51;16.90;99.90
19232;DHT22;9750;48.730;10.294;2022-10-31T15:40:21;16.90;99.90
19232;DHT22;9750;48.730;10.294;2022-10-31T15:42:51;16.80;99.90
19232;DHT22;9750;48.730;10.294;2022-10-31T15:45:24;16.70;99.90
19232;DHT22;9750;48.730;10.294;2022-10-31T15:47:55;16.60;99.90
19232;DHT22;9750;48.730;10.294;2022-10-31T15:50:28;16.60;99.90
19232;DHT22;9750;48.730;10.294;2022-10-31T15:52:56;16.50;99.90
19232;DHT22;9750;48.730;10.294;2022-10-31T15:55:24;16.50;99.90
19232;DHT22;9750;48.730;10.294;2022-10-31T15:57:56;16.40;99.90
19232;DHT22;9750;48.730;10.294;2022-10-31T16:00:28;16.30;99.90
19232;DHT22;9750;48.730;10.294;2022-10-31T16:03:06;16.30;99.90
19232;DHT22;9750;48.730;10.294;2022-10-31T16:05:36;16.20;99.90
19232;DHT22;9750;48.730;10.294;2022-10-31T16:08:04;16.20;99.90
19232;DHT22;9750;48.730;10.294;2022-10-31T16:10:47;16.10;99.90
19232;DHT22;9750;48.730;10.294;2022-10-31T16:13:15;16.00;99.90